Time;durP1;ratioP1;P1;durP2;ratioP2;P2;SDS_P1;SDS_P2;PMS_P1;PMS_P2;Temp;Humidity;BMP_temperature;BMP_pressure;BME280_temperature;BME280_humidity;BME280_pressure;Samples;Min_cycle;Max_cycle;Signal;HPM_P1;HPM_P2
2021/08/10 00:01:32;;;;;;;4.30;1.60;;;14.30;99.90;;;;;;1997379;72;21047;-74
2021/08/10 00:03:58;;;;;;;4.42;1.65;;;14.30;99.90;;;;;;1997511;72;21034;-74
2021/08/10 00:06:24;;;;;;;6.37;1.60;;;14.30;99.90;;;;;;1997397;72;21010;-74
2021/08/10 00:08:50;;;;;;;2.50;1.85;;;14.20;99.90;;;;;;1997483;72;21119;-74
2021/08/10 00:11:16;;;;;;;9.53;1.60;;;14.20;99.90;;;;;;1997275;72;21017;-74
2021/08/10 00:13:42;;;;;;;2.42;1.55;;;14.20;99.90;;;;;;1997468;72;21115;-74
2021/08/10 00:16:08;;;;;;;2.85;1.62;;;14.10;99.90;;;;;;1997223;72;21014;-74
2021/08/10 00:18:35;;;;;;;1.55;1.30;;;14.10;99.90;;;;;;1997472;72;21045;-74
2021/08/10 00:21:01;;;;;;;4.00;1.40;;;14.10;99.90;;;;;;1997343;72;21108;-74
2021/08/10 00:23:27;;;;;;;3.75;1.80;;;14.00;99.90;;;;;;1997391;72;21464;-74
2021/08/10 00:25:53;;;;;;;5.50;1.90;;;14.00;99.90;;;;;;1997289;72;21383;-75
2021/08/10 00:28:19;;;;;;;2.50;1.90;;;14.00;99.90;;;;;;1997482;72;21466;-74
2021/08/10 00:30:45;;;;;;;1.95;1.35;;;14.00;99.90;;;;;;1997378;72;21430;-74
2021/08/10 00:33:11;;;;;;;2.45;1.70;;;14.00;99.90;;;;;;1997362;72;21497;-74
2021/08/10 00:35:37;;;;;;;1.62;1.27;;;14.00;99.90;;;;;;1997357;72;21434;-74
2021/08/10 00:38:04;;;;;;;3.75;1.75;;;14.00;99.90;;;;;;1997314;72;21038;-74
2021/08/10 00:40:30;;;;;;;4.97;1.98;;;13.90;99.90;;;;;;1997329;72;21041;-74
2021/08/10 00:42:56;;;;;;;4.58;1.67;;;13.80;99.90;;;;;;1997363;72;21030;-75
2021/08/10 00:45:22;;;;;;;3.08;1.57;;;13.90;99.90;;;;;;1997344;72;21026;-74
2021/08/10 00:47:48;;;;;;;2.05;1.40;;;13.90;99.90;;;;;;1997380;72;21038;-74
2021/08/10 00:50:14;;;;;;;3.72;1.60;;;13.80;99.90;;;;;;1997354;72;21034;-74
2021/08/10 00:52:40;;;;;;;5.75;2.15;;;13.80;99.90;;;;;;1997362;72;21073;-74
2021/08/10 00:55:07;;;;;;;2.25;1.50;;;13.80;99.90;;;;;;1997345;72;21038;-75
2021/08/10 00:57:33;;;;;;;9.88;2.30;;;13.70;99.90;;;;;;1997439;72;21041;-75
2021/08/10 00:59:59;;;;;;;4.12;1.65;;;13.70;99.90;;;;;;1997365;72;21111;-75
2021/08/10 01:02:25;;;;;;;2.08;1.25;;;13.70;99.90;;;;;;1997463;72;21049;-74
2021/08/10 01:04:51;;;;;;;3.52;1.80;;;13.70;99.90;;;;;;1997332;72;21093;-74
2021/08/10 01:07:17;;;;;;;1.98;1.30;;;13.60;99.90;;;;;;1997350;72;21042;-75
2021/08/10 01:09:44;;;;;;;3.45;2.00;;;13.60;99.90;;;;;;1997363;72;21459;-75
2021/08/10 01:12:10;;;;;;;2.62;1.70;;;13.60;99.90;;;;;;1997441;72;21049;-75
2021/08/10 01:14:36;;;;;;;3.17;1.82;;;13.50;99.90;;;;;;1997437;72;21038;-74
2021/08/10 01:17:02;;;;;;;3.12;1.67;;;13.50;99.90;;;;;;1997196;72;21018;-74
2021/08/10 01:19:28;;;;;;;13.98;2.17;;;13.50;99.90;;;;;;1997442;72;21038;-75
2021/08/10 01:21:54;;;;;;;1.82;1.70;;;13.40;99.90;;;;;;1997534;72;21037;-74
2021/08/10 01:24:20;;;;;;;3.87;2.15;;;13.40;99.90;;;;;;1997537;72;21037;-76
2021/08/10 01:26:46;;;;;;;7.28;2.10;;;13.40;99.90;;;;;;1997422;72;20983;-74
2021/08/10 01:29:13;;;;;;;9.48;1.42;;;13.40;99.90;;;;;;1997654;72;21103;-74
2021/08/10 01:31:39;;;;;;;1.57;1.47;;;13.40;99.90;;;;;;1997648;72;21115;-75
2021/08/10 01:34:05;;;;;;;2.52;1.95;;;13.40;99.90;;;;;;1997418;72;21536;-75
2021/08/10 01:36:31;;;;;;;4.40;1.90;;;13.40;99.90;;;;;;1997556;72;21492;-75
2021/08/10 01:38:57;;;;;;;1.95;1.70;;;13.30;99.90;;;;;;1997575;72;21014;-74
2021/08/10 01:41:23;;;;;;;2.58;1.75;;;13.30;99.90;;;;;;1997537;72;21007;-75
2021/08/10 01:43:49;;;;;;;2.55;1.60;;;13.30;99.90;;;;;;1997519;72;21030;-75
2021/08/10 01:46:15;;;;;;;2.60;1.70;;;13.30;99.90;;;;;;1997457;72;21037;-74
2021/08/10 01:48:42;;;;;;;4.83;1.65;;;13.30;99.90;;;;;;1997446;72;21042;-75
2021/08/10 01:51:08;;;;;;;4.00;1.92;;;13.30;99.90;;;;;;1997464;72;21015;-75
2021/08/10 01:53:34;;;;;;;3.12;1.65;;;13.30;99.90;;;;;;1997428;72;21116;-74
2021/08/10 01:56:00;;;;;;;3.40;2.02;;;13.30;99.90;;;;;;1997462;72;21103;-75
2021/08/10 01:58:26;;;;;;;2.67;1.67;;;13.30;99.90;;;;;;1997353;72;21497;-75
2021/08/10 02:00:52;;;;;;;2.00;1.70;;;13.20;99.90;;;;;;1997560;72;21464;-74
2021/08/10 02:03:18;;;;;;;2.20;1.45;;;13.20;99.90;;;;;;1997430;72;21104;-74
2021/08/10 02:05:45;;;;;;;13.85;2.15;;;13.20;99.90;;;;;;1997457;72;21037;-75
2021/08/10 02:08:11;;;;;;;17.17;2.33;;;13.10;99.90;;;;;;1997463;72;21069;-75
2021/08/10 02:10:37;;;;;;;2.92;1.65;;;13.20;99.90;;;;;;1997425;72;21033;-75
2021/08/10 02:13:03;;;;;;;2.65;1.72;;;13.20;99.90;;;;;;1997543;72;21014;-74
2021/08/10 02:15:29;;;;;;;4.25;1.95;;;13.10;99.90;;;;;;1997451;72;21011;-75
2021/08/10 02:17:55;;;;;;;5.35;1.90;;;13.10;99.90;;;;;;1997398;72;21049;-75
2021/08/10 02:20:21;;;;;;;2.05;1.82;;;13.10;99.90;;;;;;1997514;72;21093;-75
2021/08/10 02:22:48;;;;;;;2.75;1.90;;;13.10;99.90;;;;;;1997309;72;21425;-74
2021/08/10 02:25:14;;;;;;;1.77;1.65;;;13.10;99.90;;;;;;1997349;72;21037;-74
2021/08/10 02:27:40;;;;;;;8.28;2.20;;;13.10;99.90;;;;;;1997363;72;21030;-74
2021/08/10 02:30:06;;;;;;;8.45;2.17;;;13.10;99.90;;;;;;1997451;72;21041;-75
2021/08/10 02:32:32;;;;;;;6.42;1.80;;;13.10;99.90;;;;;;1993684;72;21050;-74
2021/08/10 02:34:58;;;;;;;2.77;2.12;;;13.00;99.90;;;;;;1992893;72;21054;-75
2021/08/10 02:37:25;;;;;;;3.90;2.08;;;13.00;99.90;;;;;;1996497;72;21049;-75
2021/08/10 02:39:51;;;;;;;4.70;2.05;;;12.90;99.90;;;;;;1996145;72;21057;-75
2021/08/10 02:42:17;;;;;;;5.83;2.42;;;12.90;99.90;;;;;;1997426;72;21018;-74
2021/08/10 02:44:43;;;;;;;2.20;1.67;;;12.90;99.90;;;;;;1997405;72;21178;-74
2021/08/10 02:47:09;;;;;;;2.90;2.00;;;12.90;99.90;;;;;;1997356;72;21427;-74
2021/08/10 02:49:35;;;;;;;10.58;2.00;;;12.90;99.90;;;;;;1997529;72;21533;-75
2021/08/10 02:52:01;;;;;;;9.03;2.70;;;12.90;99.90;;;;;;1997409;72;21468;-74
2021/08/10 02:54:27;;;;;;;4.87;1.98;;;12.90;99.90;;;;;;1997427;72;21458;-74
2021/08/10 02:56:53;;;;;;;2.83;2.00;;;12.80;99.90;;;;;;1997389;72;21507;-75
2021/08/10 02:59:20;;;;;;;6.15;2.35;;;12.80;99.90;;;;;;1997403;72;21462;-74
2021/08/10 03:01:46;;;;;;;3.83;2.40;;;12.80;99.90;;;;;;1997516;72;21111;-74
2021/08/10 03:04:12;;;;;;;2.65;1.85;;;12.80;99.90;;;;;;1997404;72;21042;-75
2021/08/10 03:06:38;;;;;;;2.83;1.98;;;12.80;99.90;;;;;;1997408;72;21018;-74
2021/08/10 03:09:04;;;;;;;2.67;1.77;;;12.80;99.90;;;;;;1997649;72;21041;-74
2021/08/10 03:11:30;;;;;;;4.03;2.25;;;12.80;99.90;;;;;;1997562;72;21045;-74
2021/08/10 03:13:56;;;;;;;1.50;1.40;;;12.70;99.90;;;;;;1997609;72;21041;-74
2021/08/10 03:16:22;;;;;;;3.72;2.15;;;12.80;99.90;;;;;;1997596;72;21022;-74
2021/08/10 03:18:49;;;;;;;11.00;1.70;;;12.80;99.90;;;;;;1997462;72;21041;-74
2021/08/10 03:21:15;;;;;;;4.60;2.12;;;12.70;99.90;;;;;;1997519;72;21037;-74
2021/08/10 03:23:41;;;;;;;2.45;1.98;;;12.70;99.90;;;;;;1997387;72;21136;-74
2021/08/10 03:26:07;;;;;;;3.08;2.10;;;12.60;99.90;;;;;;1997414;72;21037;-74
2021/08/10 03:28:33;;;;;;;4.55;2.08;;;12.60;99.90;;;;;;1997415;72;21042;-75
2021/08/10 03:30:59;;;;;;;2.58;2.00;;;12.60;99.90;;;;;;1997563;72;21108;-74
2021/08/10 03:33:26;;;;;;;7.65;2.08;;;12.60;99.90;;;;;;1997526;72;21042;-74
2021/08/10 03:35:52;;;;;;;6.08;2.30;;;12.60;99.90;;;;;;1997511;72;21077;-74
2021/08/10 03:38:19;;;;;;;3.77;1.92;;;12.70;99.90;;;;;;1997367;72;21045;-74
2021/08/10 03:40:45;;;;;;;1.95;1.77;;;12.60;99.90;;;;;;1997378;72;21045;-74
2021/08/10 03:43:11;;;;;;;3.10;2.27;;;12.60;99.90;;;;;;1997400;72;21046;-74
2021/08/10 03:45:37;;;;;;;4.03;2.00;;;12.70;99.90;;;;;;1997402;72;21103;-74
2021/08/10 03:48:03;;;;;;;4.20;2.08;;;12.60;99.90;;;;;;1997457;72;21045;-74
2021/08/10 03:50:29;;;;;;;4.45;2.27;;;12.70;99.90;;;;;;1997352;72;21107;-74
2021/08/10 03:52:55;;;;;;;5.15;2.02;;;12.60;99.90;;;;;;1997422;72;21015;-74
2021/08/10 03:55:22;;;;;;;1.77;1.67;;;12.60;99.90;;;;;;1997412;72;21081;-74
2021/08/10 03:57:48;;;;;;;4.67;2.27;;;12.60;99.90;;;;;;1997438;72;21150;-74
2021/08/10 04:00:14;;;;;;;4.80;2.35;;;12.50;99.90;;;;;;1997409;72;21570;-74
2021/08/10 04:02:41;;;;;;;5.65;2.08;;;12.50;99.90;;;;;;1997505;72;21436;-74
2021/08/10 04:05:07;;;;;;;4.92;2.40;;;12.40;99.90;;;;;;1997276;72;21486;-74
2021/08/10 04:07:33;;;;;;;3.37;2.05;;;12.50;99.90;;;;;;1997306;72;21510;-74
2021/08/10 04:09:59;;;;;;;5.92;2.42;;;12.40;99.90;;;;;;1997534;72;21045;-74
2021/08/10 04:12:25;;;;;;;5.30;2.15;;;12.50;99.90;;;;;;1997383;72;21110;-74
2021/08/10 04:14:51;;;;;;;2.35;2.15;;;12.40;99.90;;;;;;1997495;72;21070;-74
2021/08/10 04:17:18;;;;;;;3.98;2.35;;;12.40;99.90;;;;;;1997457;72;21042;-75
2021/08/10 04:19:49;;;;;;;2.30;2.10;;;12.60;99.90;;;;;;1997404;72;21037;-74
2021/08/10 04:22:14;;;;;;;;;;;12.60;99.90;;;;;;2000112;72;21037;-74
2021/08/10 04:24:40;;;;;;;3.95;2.27;;;12.60;99.90;;;;;;1997326;72;20100;-74
2021/08/10 04:27:06;;;;;;;1.85;1.75;;;12.70;99.90;;;;;;1997350;72;21018;-74
2021/08/10 04:29:32;;;;;;;2.72;2.05;;;12.70;99.90;;;;;;1997385;72;21142;-74
2021/08/10 04:31:59;;;;;;;3.52;2.20;;;12.80;99.90;;;;;;1997391;72;21030;-74
2021/08/10 04:34:25;;;;;;;4.92;2.47;;;12.90;99.90;;;;;;1997394;72;21112;-75
2021/08/10 04:36:51;;;;;;;2.20;2.02;;;12.90;99.90;;;;;;1997354;72;21040;-74
2021/08/10 04:39:17;;;;;;;2.60;2.00;;;13.00;99.90;;;;;;1997415;72;21041;-75
2021/08/10 04:41:43;;;;;;;2.92;2.25;;;13.00;99.90;;;;;;1997380;72;21045;-73
2021/08/10 04:44:11;;;;;;;2.52;2.33;;;13.10;99.90;;;;;;1998077;72;21014;-75
2021/08/10 04:46:37;;;;;;;4.42;2.40;;;13.30;99.90;;;;;;2000763;72;20955;-75
2021/08/10 04:49:04;;;;;;;2.87;2.25;;;13.30;99.90;;;;;;2000776;71;21043;-76
2021/08/10 04:51:30;;;;;;;2.83;2.05;;;13.30;99.90;;;;;;1996318;71;21456;-74
2021/08/10 04:53:57;;;;;;;2.58;2.08;;;13.50;99.90;;;;;;1997463;72;21501;-74
2021/08/10 04:56:23;;;;;;;2.00;1.85;;;13.70;99.90;;;;;;1997236;72;21587;-74
2021/08/10 04:58:49;;;;;;;4.47;2.42;;;13.70;99.90;;;;;;1997401;72;21477;-74
2021/08/10 05:01:15;;;;;;;2.95;2.10;;;13.80;99.90;;;;;;1997224;72;21045;-74
2021/08/10 05:03:41;;;;;;;7.95;2.83;;;13.90;99.90;;;;;;1997387;72;21354;-74
2021/08/10 05:06:08;;;;;;;2.45;2.20;;;14.00;99.90;;;;;;1997542;72;20998;-74
2021/08/10 05:08:34;;;;;;;5.20;2.52;;;14.10;99.90;;;;;;1997448;72;21023;-74
2021/08/10 05:11:01;;;;;;;8.08;3.12;;;14.00;99.90;;;;;;1996763;72;21041;-74
2021/08/10 05:13:27;;;;;;;5.83;2.80;;;14.00;99.90;;;;;;1993177;72;21041;-74
2021/08/10 05:15:54;;;;;;;2.47;2.27;;;13.90;99.90;;;;;;1994521;72;21119;-74
2021/08/10 05:18:20;;;;;;;10.00;3.40;;;14.00;99.90;;;;;;1997164;72;21015;-74
2021/08/10 05:20:46;;;;;;;4.17;3.05;;;14.00;99.90;;;;;;1997437;72;21029;-73
2021/08/10 05:23:12;;;;;;;7.83;3.08;;;14.10;99.90;;;;;;1997267;72;21085;-74
2021/08/10 05:25:38;;;;;;;4.62;2.75;;;14.00;99.90;;;;;;1997453;72;21124;-74
2021/08/10 05:28:04;;;;;;;4.33;2.80;;;14.10;99.90;;;;;;1997658;72;21037;-74
2021/08/10 05:30:30;;;;;;;8.13;4.00;;;14.10;99.90;;;;;;1997536;72;21107;-73
2021/08/10 05:32:56;;;;;;;7.00;2.80;;;14.20;99.90;;;;;;1997544;72;21037;-74
2021/08/10 05:35:23;;;;;;;6.12;2.52;;;14.30;99.90;;;;;;1997562;72;21077;-74
2021/08/10 05:37:49;;;;;;;3.55;2.72;;;14.30;99.90;;;;;;1997508;72;21112;-74
2021/08/10 05:40:15;;;;;;;3.75;2.50;;;14.50;99.90;;;;;;1997468;72;21046;-73
2021/08/10 05:42:41;;;;;;;5.10;2.60;;;14.70;99.90;;;;;;1997150;72;21110;-75
2021/08/10 05:45:07;;;;;;;7.78;2.37;;;14.90;99.90;;;;;;1997433;72;21123;-73
2021/08/10 05:47:33;;;;;;;5.17;2.85;;;15.10;99.90;;;;;;1997207;72;21042;-73
2021/08/10 05:49:59;;;;;;;11.73;3.47;;;15.20;99.90;;;;;;1997258;72;21103;-75
2021/08/10 05:52:25;;;;;;;7.30;3.30;;;15.20;99.90;;;;;;1997276;72;21049;-75
2021/08/10 05:54:52;;;;;;;5.75;3.08;;;15.10;99.90;;;;;;1997479;72;21014;-76
2021/08/10 05:57:18;;;;;;;13.38;3.02;;;15.10;99.90;;;;;;1997344;72;21025;-76
2021/08/10 05:59:44;;;;;;;5.80;3.12;;;15.10;99.90;;;;;;1997374;72;21468;-74
2021/08/10 06:02:10;;;;;;;7.00;3.08;;;15.10;99.90;;;;;;1997296;72;21119;-75
2021/08/10 06:04:36;;;;;;;5.47;2.72;;;15.00;99.90;;;;;;1997231;72;21045;-74
2021/08/10 06:07:04;;;;;;;8.63;3.17;;;14.90;99.90;;;;;;1997298;72;21058;-74
2021/08/10 06:09:30;;;;;;;8.25;2.80;;;15.00;99.90;;;;;;1997308;72;21473;-74
2021/08/10 06:11:56;;;;;;;6.58;2.85;;;15.00;99.90;;;;;;1997319;72;21458;-74
2021/08/10 06:14:22;;;;;;;3.60;2.25;;;14.90;99.90;;;;;;1997394;72;21486;-73
2021/08/10 06:16:49;;;;;;;8.33;3.37;;;14.90;99.90;;;;;;1997439;72;21045;-74
2021/08/10 06:19:15;;;;;;;5.62;2.85;;;15.00;99.90;;;;;;1997482;72;21022;-73
2021/08/10 06:21:41;;;;;;;10.68;3.17;;;15.10;99.90;;;;;;1997517;72;21103;-72
2021/08/10 06:24:07;;;;;;;7.60;2.75;;;15.20;99.90;;;;;;1997341;72;21053;-72
2021/08/10 06:26:33;;;;;;;4.67;2.40;;;15.30;99.90;;;;;;1997441;72;21123;-73
2021/08/10 06:28:59;;;;;;;6.65;2.83;;;15.40;99.90;;;;;;1997218;72;21434;-72
2021/08/10 06:31:25;;;;;;;14.93;3.25;;;15.40;99.90;;;;;;1997369;72;21449;-72
2021/08/10 06:33:51;;;;;;;3.50;2.40;;;15.40;99.90;;;;;;1997753;72;21423;-76
2021/08/10 06:36:18;;;;;;;11.15;2.65;;;15.30;99.90;;;;;;1997459;72;21471;-74
2021/08/10 06:38:44;;;;;;;4.37;2.45;;;15.50;99.90;;;;;;1997228;72;21435;-74
2021/08/10 06:41:10;;;;;;;5.60;2.90;;;15.50;99.90;;;;;;1997513;72;21022;-73
2021/08/10 06:43:36;;;;;;;9.93;2.90;;;15.50;99.90;;;;;;1997606;72;21041;-74
2021/08/10 06:46:02;;;;;;;9.85;3.72;;;15.70;99.90;;;;;;1997509;72;21162;-74
2021/08/10 06:48:29;;;;;;;4.15;2.33;;;15.80;99.90;;;;;;1997636;72;21042;-74
2021/08/10 06:50:55;;;;;;;8.50;2.72;;;15.90;99.90;;;;;;1997610;72;21018;-73
2021/08/10 06:53:21;;;;;;;4.72;2.20;;;16.10;99.90;;;;;;1997586;72;21107;-73
2021/08/10 06:55:47;;;;;;;11.45;3.10;;;16.20;99.90;;;;;;1997345;72;21041;-73
2021/08/10 06:58:13;;;;;;;13.03;3.20;;;16.40;99.90;;;;;;1997351;72;21050;-74
2021/08/10 07:00:39;;;;;;;15.90;3.17;;;16.40;99.90;;;;;;1997287;72;21099;-73
2021/08/10 07:03:06;;;;;;;7.80;2.60;;;16.60;99.90;;;;;;1997495;72;21474;-73
2021/08/10 07:05:32;;;;;;;7.08;2.60;;;16.90;99.90;;;;;;1996136;72;21085;-73
2021/08/10 07:07:59;;;;;;;8.58;2.42;;;17.00;99.90;;;;;;1996667;72;21128;-74
2021/08/10 07:10:25;;;;;;;4.80;2.10;;;17.10;99.90;;;;;;1994421;72;21006;-74
2021/08/10 07:12:51;;;;;;;6.53;2.50;;;17.10;99.90;;;;;;1996357;72;21050;-73
2021/08/10 07:15:17;;;;;;;10.23;2.55;;;17.30;99.90;;;;;;1997321;72;21103;-73
2021/08/10 07:17:43;;;;;;;4.92;2.72;;;17.40;99.90;;;;;;1993496;72;21073;-74
2021/08/10 07:20:10;;;;;;;3.40;2.45;;;17.50;99.90;;;;;;1993787;72;21519;-73
2021/08/10 07:22:36;;;;;;;5.15;2.50;;;17.50;99.90;;;;;;1993830;72;21046;-73
2021/08/10 07:25:03;;;;;;;7.05;2.42;;;17.60;99.90;;;;;;1993784;72;21087;-74
2021/08/10 07:27:29;;;;;;;5.53;2.85;;;17.80;99.90;;;;;;1997469;72;21033;-75
2021/08/10 07:29:55;;;;;;;5.67;2.50;;;17.80;99.90;;;;;;1997653;72;21042;-74
2021/08/10 07:32:21;;;;;;;11.30;2.60;;;17.50;99.90;;;;;;1997605;72;21103;-74
2021/08/10 07:34:49;;;;;;;8.75;2.55;;;17.70;99.90;;;;;;1997576;72;21041;-74
2021/08/10 07:37:16;;;;;;;2.60;2.10;;;17.90;99.90;;;;;;1997520;72;21022;-74
2021/08/10 07:39:42;;;;;;;3.37;2.20;;;18.00;99.90;;;;;;1997487;72;21022;-74
2021/08/10 07:42:08;;;;;;;9.15;2.50;;;17.90;99.90;;;;;;1997428;72;21006;-74
2021/08/10 07:44:34;;;;;;;6.33;2.55;;;18.10;99.90;;;;;;1997427;72;21030;-74
2021/08/10 07:47:02;;;;;;;6.95;2.40;;;18.00;99.90;;;;;;1997539;72;21044;-75
2021/08/10 07:49:28;;;;;;;4.70;2.45;;;18.20;99.90;;;;;;1997197;71;21030;-74
2021/08/10 07:51:54;;;;;;;7.47;2.42;;;18.40;99.90;;;;;;1997534;72;21038;-74
2021/08/10 07:54:20;;;;;;;6.60;2.35;;;18.70;99.90;;;;;;1997639;72;21131;-74
2021/08/10 07:56:46;;;;;;;6.15;2.05;;;18.60;99.90;;;;;;1997519;72;21046;-75
2021/08/10 07:59:12;;;;;;;6.30;2.52;;;19.00;99.90;;;;;;1997385;72;21073;-75
2021/08/10 08:01:39;;;;;;;4.55;2.50;;;19.60;99.90;;;;;;1997416;72;21123;-75
2021/08/10 08:04:05;;;;;;;11.40;2.40;;;19.80;99.90;;;;;;1997428;72;21117;-74
2021/08/10 08:06:31;;;;;;;3.67;2.00;;;19.80;99.90;;;;;;1997507;72;21022;-75
2021/08/10 08:08:57;;;;;;;4.10;2.00;;;20.00;99.90;;;;;;1997412;72;21414;-76
2021/08/10 08:11:23;;;;;;;5.83;1.80;;;20.30;99.90;;;;;;1997515;72;21420;-75
2021/08/10 08:13:50;;;;;;;7.90;2.20;;;20.80;99.90;;;;;;1997249;72;21041;-74
2021/08/10 08:16:16;;;;;;;5.58;2.00;;;21.00;99.90;;;;;;1997443;72;21079;-75
2021/08/10 08:18:43;;;;;;;4.08;1.92;;;20.80;99.90;;;;;;1997416;72;21090;-75
2021/08/10 08:21:09;;;;;;;2.75;1.60;;;20.90;99.90;;;;;;1997288;72;21439;-75
2021/08/10 08:23:37;;;;;;;5.50;2.10;;;21.20;99.90;;;;;;1997625;72;21511;-75
2021/08/10 08:26:03;;;;;;;3.75;2.02;;;21.30;99.90;;;;;;1997296;70;21121;-75
2021/08/10 08:28:29;;;;;;;2.35;1.87;;;21.30;99.90;;;;;;1997475;72;21119;-75
2021/08/10 08:30:55;;;;;;;4.65;2.02;;;21.30;99.90;;;;;;1997285;72;21011;-75
2021/08/10 08:33:21;;;;;;;4.10;1.80;;;20.90;99.90;;;;;;1997572;72;21041;-73
2021/08/10 08:35:47;;;;;;;3.30;2.20;;;21.30;99.90;;;;;;1997233;72;21110;-72
2021/08/10 08:38:13;;;;;;;4.67;1.87;;;21.40;99.90;;;;;;1997290;72;21058;-75
2021/08/10 08:40:39;;;;;;;4.37;1.98;;;21.50;99.90;;;;;;1997192;72;21014;-75
2021/08/10 08:43:06;;;;;;;4.17;2.02;;;21.60;99.90;;;;;;1997385;72;21053;-75
2021/08/10 08:45:32;;;;;;;2.90;1.72;;;21.40;99.90;;;;;;1997289;72;21088;-75
2021/08/10 08:47:58;;;;;;;2.37;1.60;;;21.10;99.90;;;;;;1997261;72;21119;-75
2021/08/10 08:50:26;;;;;;;2.92;1.45;;;21.20;99.90;;;;;;1997218;72;21030;-74
2021/08/10 08:52:52;;;;;;;4.08;1.92;;;21.60;99.90;;;;;;1997330;72;21478;-74
2021/08/10 08:55:18;;;;;;;4.20;1.82;;;21.80;99.90;;;;;;1959461;72;21119;-75
2021/08/10 08:57:46;;;;;;;4.58;1.95;;;21.80;99.90;;;;;;1997390;72;21034;-75
2021/08/10 09:00:13;;;;;;;4.35;1.90;;;22.50;99.90;;;;;;1997530;72;21424;-75
2021/08/10 09:02:40;;;;;;;2.58;1.60;;;22.40;99.90;;;;;;1997523;72;21018;-75
2021/08/10 09:05:07;;;;;;;2.90;1.55;;;22.30;99.90;;;;;;1997389;72;21040;-75
2021/08/10 09:07:33;;;;;;;6.40;1.72;;;22.20;99.90;;;;;;1997270;72;21077;-75
2021/08/10 09:09:59;;;;;;;2.85;1.62;;;22.50;99.90;;;;;;1997305;72;21038;-76
2021/08/10 09:12:29;;;;;;;3.27;1.45;;;22.70;99.90;;;;;;1997305;72;21014;-75
2021/08/10 09:14:53;;;;;;;3.00;1.52;;;22.40;99.90;;;;;;1995139;72;21475;-75
2021/08/10 09:17:22;;;;;;;3.67;1.62;;;22.80;99.90;;;;;;1997673;72;21523;-73
2021/08/10 09:19:47;;;;;;;2.35;1.30;;;22.50;99.90;;;;;;1996021;72;21057;-74
2021/08/10 09:22:13;;;;;;;5.08;1.52;;;23.00;99.90;;;;;;1997402;72;21037;-73
2021/08/10 09:24:39;;;;;;;5.35;1.52;;;23.10;99.90;;;;;;1997250;72;21015;-74
2021/08/10 09:27:06;;;;;;;3.65;1.17;;;23.20;99.90;;;;;;1997416;72;21111;-74
2021/08/10 09:29:32;;;;;;;5.50;1.35;;;23.30;99.90;;;;;;1997251;72;21045;-74
2021/08/10 09:31:58;;;;;;;1.30;1.10;;;23.70;99.90;;;;;;1996656;72;21034;-74
2021/08/10 09:34:26;;;;;;;2.65;1.02;;;23.70;99.90;;;;;;1996252;72;21041;-75
2021/08/10 09:36:52;;;;;;;4.70;1.67;;;24.30;99.90;;;;;;1997125;72;21074;-76
2021/08/10 09:39:18;;;;;;;4.28;1.35;;;24.10;99.90;;;;;;1997441;72;21107;-75
2021/08/10 09:41:45;;;;;;;1.92;1.30;;;24.10;99.90;;;;;;1997484;72;21112;-76
2021/08/10 09:44:11;;;;;;;1.52;1.40;;;24.20;99.90;;;;;;1997483;72;21030;-76
2021/08/10 09:46:37;;;;;;;3.55;1.62;;;25.00;99.90;;;;;;1994251;72;21011;-75
2021/08/10 09:49:03;;;;;;;3.65;1.60;;;25.60;99.90;;;;;;1992675;71;21148;-75
2021/08/10 09:51:29;;;;;;;4.05;1.30;;;26.10;99.90;;;;;;1997352;72;21079;-75
2021/08/10 09:53:56;;;;;;;4.60;1.55;;;26.40;99.90;;;;;;1995238;72;21477;-76
2021/08/10 09:56:22;;;;;;;1.47;1.15;;;26.40;99.90;;;;;;1993682;72;21105;-75
2021/08/10 09:58:48;;;;;;;4.08;1.40;;;25.50;99.90;;;;;;1993618;72;21111;-75
2021/08/10 10:01:17;;;;;;;4.75;2.40;;;25.40;99.90;;;;;;1995966;72;21042;-76
2021/08/10 10:03:43;;;;;;;3.10;1.27;;;25.40;99.90;;;;;;1997498;72;21107;-75
2021/08/10 10:06:10;;;;;;;2.70;1.37;;;25.10;99.90;;;;;;1997671;72;21018;-75
2021/08/10 10:08:36;;;;;;;2.25;1.17;;;24.70;99.90;;;;;;1997787;72;21066;-76
2021/08/10 10:11:02;;;;;;;2.17;1.25;;;25.00;99.90;;;;;;1997465;72;21126;-74
2021/08/10 10:13:29;;;;;;;5.85;1.32;;;25.20;99.90;;;;;;1997885;72;21045;-74
2021/08/10 10:15:56;;;;;;;2.10;1.30;;;25.00;99.90;;;;;;1999718;72;21037;-75
2021/08/10 10:18:23;;;;;;;4.58;1.45;;;25.10;99.90;;;;;;2001294;71;21049;-74
2021/08/10 10:20:49;;;;;;;6.97;1.80;;;24.70;99.90;;;;;;2001313;71;20954;-76
2021/08/10 10:23:15;;;;;;;2.75;1.40;;;24.30;99.90;;;;;;1998682;72;20989;-76
2021/08/10 10:25:41;;;;;;;2.60;1.10;;;24.70;99.90;;;;;;1997660;72;21038;-76
2021/08/10 10:28:08;;;;;;;4.95;1.07;;;24.80;99.90;;;;;;1997508;72;21022;-75
2021/08/10 10:30:34;;;;;;;3.87;1.42;;;24.80;99.90;;;;;;1997402;72;21099;-75
2021/08/10 10:33:00;;;;;;;3.25;1.22;;;24.90;99.90;;;;;;1997345;72;21037;-75
2021/08/10 10:35:26;;;;;;;3.22;1.30;;;25.20;99.90;;;;;;1997357;72;21115;-75
2021/08/10 10:37:53;;;;;;;4.58;1.32;;;25.30;99.90;;;;;;1997268;72;21026;-75
2021/08/10 10:40:19;;;;;;;2.35;1.17;;;25.40;99.90;;;;;;1997459;72;21047;-76
2021/08/10 10:42:45;;;;;;;2.12;1.20;;;25.50;99.90;;;;;;1997341;72;21037;-76
2021/08/10 10:45:11;;;;;;;1.67;1.27;;;25.80;99.90;;;;;;1997485;72;21034;-76
2021/08/10 10:47:38;;;;;;;5.35;0.98;;;26.10;99.90;;;;;;1997381;72;21033;-76
2021/08/10 10:50:05;;;;;;;4.08;1.40;;;26.00;99.90;;;;;;1997380;72;21026;-77
2021/08/10 10:52:31;;;;;;;1.22;1.07;;;25.50;99.90;;;;;;1997421;72;21038;-74
2021/08/10 10:54:57;;;;;;;1.45;0.80;;;25.40;99.90;;;;;;1997498;72;21103;-74
2021/08/10 10:57:24;;;;;;;3.75;1.42;;;25.80;99.90;;;;;;1997632;72;21103;-75
2021/08/10 10:59:50;;;;;;;1.30;1.20;;;25.50;99.90;;;;;;1997644;72;21039;-75
2021/08/10 11:02:16;;;;;;;4.97;1.47;;;25.60;99.90;;;;;;1997546;72;21112;-75
2021/08/10 11:04:42;;;;;;;3.25;1.70;;;25.40;99.90;;;;;;1997340;72;21111;-74
2021/08/10 11:07:08;;;;;;;2.45;1.20;;;25.20;99.90;;;;;;1997544;72;21050;-75
2021/08/10 11:09:34;;;;;;;2.22;1.15;;;25.60;99.90;;;;;;1997415;72;21025;-74
2021/08/10 11:12:00;;;;;;;1.15;1.05;;;25.90;99.90;;;;;;1997498;72;21426;-74
2021/08/10 11:14:26;;;;;;;1.98;1.10;;;26.00;99.90;;;;;;1997390;72;21499;-74
2021/08/10 11:16:53;;;;;;;5.53;1.40;;;26.10;99.90;;;;;;1997433;72;21544;-75
2021/08/10 11:19:19;;;;;;;1.25;1.15;;;26.30;99.90;;;;;;1997409;72;21587;-76
2021/08/10 11:21:45;;;;;;;1.62;1.25;;;26.40;99.90;;;;;;1997446;72;21422;-75
2021/08/10 11:24:11;;;;;;;1.95;1.05;;;26.60;99.90;;;;;;1997416;72;21527;-75
2021/08/10 11:26:37;;;;;;;1.25;1.12;;;26.70;99.90;;;;;;1997412;72;21037;-75
2021/08/10 11:29:03;;;;;;;3.17;1.65;;;26.70;99.90;;;;;;1997363;72;21077;-75
2021/08/10 11:31:30;;;;;;;3.37;1.52;;;26.60;99.90;;;;;;1997605;72;21055;-75
2021/08/10 11:33:56;;;;;;;3.40;1.20;;;26.70;99.90;;;;;;1997497;72;21114;-75
2021/08/10 11:36:22;;;;;;;8.38;1.40;;;26.90;99.90;;;;;;1997435;72;21422;-75
2021/08/10 11:38:48;;;;;;;1.65;1.10;;;26.70;99.90;;;;;;1997298;72;21481;-75
2021/08/10 11:41:14;;;;;;;2.37;1.02;;;26.60;99.90;;;;;;1997365;72;21514;-75
2021/08/10 11:43:44;;;;;;;2.95;1.25;;;26.40;99.90;;;;;;1997325;72;21563;-75
2021/08/10 11:46:10;;;;;;;3.98;1.37;;;26.40;99.90;;;;;;1996314;72;21062;-75
2021/08/10 11:48:36;;;;;;;5.55;1.32;;;26.30;99.90;;;;;;1992977;72;21036;-75
2021/08/10 11:51:02;;;;;;;2.40;1.60;;;26.40;99.90;;;;;;1997477;72;21038;-75
2021/08/10 11:53:29;;;;;;;2.45;1.40;;;26.70;99.90;;;;;;1997467;72;21038;-75
2021/08/10 11:55:55;;;;;;;1.52;1.20;;;27.00;99.90;;;;;;1997413;72;21473;-75
2021/08/10 11:58:21;;;;;;;2.33;1.12;;;27.20;99.90;;;;;;1997286;72;21525;-75
2021/08/10 12:00:47;;;;;;;3.90;1.17;;;27.10;99.90;;;;;;1997276;72;21429;-75
2021/08/10 12:03:17;;;;;;;2.35;1.12;;;27.00;99.90;;;;;;1997477;72;21497;-75
2021/08/10 12:05:41;;;;;;;3.65;1.55;;;26.60;99.90;;;;;;1996717;71;21116;-74
2021/08/10 12:08:07;;;;;;;2.95;1.17;;;26.70;99.90;;;;;;1997418;72;21106;-75
2021/08/10 12:10:34;;;;;;;4.20;1.70;;;26.60;99.90;;;;;;1997320;72;21636;-75
2021/08/10 12:13:00;;;;;;;3.62;1.37;;;27.10;99.90;;;;;;1996852;72;21051;-75
2021/08/10 12:15:26;;;;;;;3.90;1.30;;;27.20;99.90;;;;;;1997374;72;21056;-75
2021/08/10 12:17:53;;;;;;;2.35;1.47;;;27.40;99.90;;;;;;1996283;72;21049;-74
2021/08/10 12:20:19;;;;;;;3.40;1.47;;;27.30;99.90;;;;;;1996029;72;21050;-75
2021/08/10 12:22:45;;;;;;;3.37;1.50;;;27.40;99.90;;;;;;1997420;72;21128;-75
2021/08/10 12:25:11;;;;;;;2.55;1.57;;;27.10;99.90;;;;;;1993863;72;21045;-75
2021/08/10 12:27:38;;;;;;;5.33;1.50;;;27.20;99.90;;;;;;1996339;72;21037;-75
2021/08/10 12:30:04;;;;;;;1.37;1.17;;;27.50;99.90;;;;;;1997232;72;21070;-75
2021/08/10 12:32:30;;;;;;;5.78;1.60;;;28.10;99.90;;;;;;1997376;72;21095;-76
2021/08/10 12:34:56;;;;;;;1.27;1.12;;;28.40;99.90;;;;;;1997401;72;21099;-73
2021/08/10 12:37:22;;;;;;;6.67;1.80;;;28.20;99.90;;;;;;1997234;72;21045;-76
2021/08/10 12:39:49;;;;;;;2.47;1.57;;;28.50;99.90;;;;;;1997499;72;21049;-76